Time;durP1;ratioP1;P1;durP2;ratioP2;P2;SDS_P1;SDS_P2;PMS_P1;PMS_P2;Temp;Humidity;BMP_temperature;BMP_pressure;BME280_temperature;BME280_humidity;BME280_pressure;Samples;Min_cycle;Max_cycle;Signal;HPM_P1;HPM_P2
2023/01/08 00:00:51;;;;;;;6.53;3.00;;;9.90;99.90;;;;;;5053984;28;20093;-52
2023/01/08 00:03:19;;;;;;;4.88;3.00;;;9.90;99.90;;;;;;5070513;28;20056;-49
2023/01/08 00:05:46;;;;;;;4.88;3.10;;;9.90;99.90;;;;;;5071200;28;20049;-49
2023/01/08 00:08:13;;;;;;;5.32;3.60;;;9.90;99.90;;;;;;5034514;28;20481;-54
2023/01/08 00:10:40;;;;;;;4.82;3.10;;;9.90;99.90;;;;;;5048205;28;20095;-52
2023/01/08 00:13:07;;;;;;;5.80;2.85;;;9.90;99.90;;;;;;5052312;28;20098;-51
2023/01/08 00:15:34;;;;;;;5.30;3.03;;;9.90;99.90;;;;;;5052321;28;20095;-52
2023/01/08 00:18:01;;;;;;;5.50;3.00;;;9.90;99.90;;;;;;5068777;28;20044;-54
2023/01/08 00:20:29;;;;;;;5.13;3.33;;;9.90;99.90;;;;;;5072160;28;20052;-54
2023/01/08 00:22:56;;;;;;;6.50;3.38;;;9.90;99.90;;;;;;5070575;28;20063;-61
2023/01/08 00:25:22;;;;;;;5.45;3.45;;;10.00;99.90;;;;;;5054146;28;20438;-57
2023/01/08 00:27:49;;;;;;;5.55;3.60;;;9.90;99.90;;;;;;5050746;28;20099;-58
2023/01/08 00:30:16;;;;;;;7.50;3.60;;;9.90;99.90;;;;;;5059640;28;20044;-52
2023/01/08 00:32:43;;;;;;;4.80;3.60;;;9.90;99.90;;;;;;5070872;28;20468;-49
2023/01/08 00:35:10;;;;;;;4.75;3.70;;;9.90;99.90;;;;;;5071128;28;20083;-55
2023/01/08 00:37:38;;;;;;;12.82;4.18;;;9.80;99.90;;;;;;5071991;28;20181;-49
2023/01/08 00:40:06;;;;;;;6.55;3.60;;;9.80;99.90;;;;;;5053437;28;20105;-50
2023/01/08 00:42:33;;;;;;;6.40;4.07;;;9.80;99.90;;;;;;5038070;28;20090;-53
2023/01/08 00:45:00;;;;;;;6.35;3.72;;;9.80;99.90;;;;;;5068851;28;20091;-57
2023/01/08 00:47:27;;;;;;;4.40;3.60;;;9.80;99.90;;;;;;5074405;28;20090;-59
2023/01/08 00:49:53;;;;;;;5.93;3.78;;;9.80;99.90;;;;;;5074697;28;20048;-57
2023/01/08 00:52:20;;;;;;;4.15;2.90;;;9.80;99.90;;;;;;5073365;28;20057;-59
2023/01/08 00:54:48;;;;;;;8.63;3.63;;;9.80;99.90;;;;;;5056902;28;20048;-56
2023/01/08 00:57:15;;;;;;;3.90;3.40;;;9.80;99.90;;;;;;5075637;28;20488;-58
2023/01/08 00:59:42;;;;;;;6.90;3.70;;;9.80;99.90;;;;;;5057165;28;20460;-58
2023/01/08 01:02:09;;;;;;;5.63;4.07;;;9.90;99.90;;;;;;5054966;28;20091;-56
2023/01/08 01:04:36;;;;;;;4.93;3.47;;;9.80;99.90;;;;;;5075522;28;20053;-54
2023/01/08 01:07:03;;;;;;;6.40;3.53;;;9.90;99.90;;;;;;5074314;28;20088;-55
2023/01/08 01:09:30;;;;;;;5.68;3.30;;;9.80;99.90;;;;;;5051627;28;20076;-53
2023/01/08 01:11:58;;;;;;;3.60;2.60;;;9.80;99.90;;;;;;5070698;28;20143;-56
2023/01/08 01:14:25;;;;;;;5.30;3.10;;;9.80;99.90;;;;;;5075102;28;20052;-56
2023/01/08 01:16:51;;;;;;;5.53;3.47;;;9.80;99.90;;;;;;5057088;28;20094;-54
2023/01/08 01:19:18;;;;;;;6.90;2.90;;;9.70;99.90;;;;;;5075134;28;20522;-48
2023/01/08 01:21:45;;;;;;;4.68;2.40;;;9.70;99.90;;;;;;5075372;28;20138;-55
2023/01/08 01:24:12;;;;;;;5.63;2.30;;;9.70;99.90;;;;;;5073819;28;20052;-55
2023/01/08 01:26:39;;;;;;;4.75;2.30;;;9.70;99.90;;;;;;5056670;28;20052;-53
2023/01/08 01:29:07;;;;;;;5.63;2.58;;;9.70;99.90;;;;;;5055850;28;20053;-55
2023/01/08 01:31:34;;;;;;;5.65;2.15;;;9.70;99.90;;;;;;5053619;28;20084;-55
2023/01/08 01:34:01;;;;;;;6.75;2.20;;;9.80;99.90;;;;;;5054724;28;20053;-54
2023/01/08 01:36:28;;;;;;;5.00;1.80;;;9.70;99.90;;;;;;5053749;28;20126;-56
2023/01/08 01:38:55;;;;;;;6.38;1.80;;;9.60;99.90;;;;;;5051865;28;20076;-55
2023/01/08 01:41:24;;;;;;;8.95;1.73;;;9.50;99.90;;;;;;5053576;28;20076;-55
2023/01/08 01:43:51;;;;;;;9.68;1.98;;;9.50;99.90;;;;;;5052833;28;20088;-55
2023/01/08 01:46:22;;;;;;;7.70;1.63;;;9.50;99.90;;;;;;5038681;28;20053;-54
2023/01/08 01:48:51;;;;;;;7.03;1.50;;;9.40;99.90;;;;;;5050844;28;20045;-53
2023/01/08 01:51:18;;;;;;;8.25;1.60;;;9.40;99.90;;;;;;5052390;28;20080;-56
2023/01/08 01:53:44;;;;;;;10.75;1.80;;;9.40;99.90;;;;;;5049064;28;20088;-55
2023/01/08 01:56:11;;;;;;;8.13;1.50;;;9.30;99.90;;;;;;5053763;28;20103;-55
2023/01/08 01:58:38;;;;;;;8.25;1.92;;;9.30;99.90;;;;;;5053416;28;20045;-56
2023/01/08 02:01:06;;;;;;;9.10;1.60;;;9.30;99.90;;;;;;5053319;28;20076;-56
2023/01/08 02:03:36;;;;;;;12.18;1.73;;;9.20;99.90;;;;;;5053527;28;20053;-55
2023/01/08 02:06:05;;;;;;;8.35;1.58;;;9.10;99.90;;;;;;5050421;28;20080;-56
2023/01/08 02:08:35;;;;;;;11.02;1.90;;;9.10;99.90;;;;;;5052172;28;20076;-55
2023/01/08 02:11:06;;;;;;;12.98;1.70;;;9.10;99.90;;;;;;5053104;28;20500;-54
2023/01/08 02:13:34;;;;;;;13.55;2.10;;;9.00;99.90;;;;;;5052228;28;20107;-55
2023/01/08 02:16:05;;;;;;;10.65;1.58;;;9.00;99.90;;;;;;5053932;28;20102;-49
2023/01/08 02:18:35;;;;;;;11.95;2.25;;;9.00;99.90;;;;;;5053251;28;20045;-51
2023/01/08 02:21:03;;;;;;;18.25;2.65;;;9.00;99.90;;;;;;5052242;28;20087;-53
2023/01/08 02:23:33;;;;;;;12.27;1.77;;;9.00;99.90;;;;;;5051620;28;20139;-55
2023/01/08 02:26:09;;;;;;;14.27;2.47;;;9.00;99.90;;;;;;5052602;28;20060;-54
2023/01/08 02:28:38;;;;;;;13.13;1.95;;;8.90;99.90;;;;;;5050630;28;20088;-54
2023/01/08 02:31:05;;;;;;;8.90;2.08;;;8.90;99.90;;;;;;5048781;28;20064;-48
2023/01/08 02:33:32;;;;;;;11.93;1.90;;;8.90;99.90;;;;;;5053179;28;20115;-54
2023/01/08 02:36:15;;;;;;;12.45;2.00;;;8.90;99.90;;;;;;5049120;28;20223;-55
2023/01/08 02:38:45;;;;;;;18.38;2.53;;;8.90;99.90;;;;;;5048140;28;20111;-56
2023/01/08 02:41:13;;;;;;;15.38;2.17;;;8.80;99.90;;;;;;5046300;28;20048;-52
2023/01/08 02:43:42;;;;;;;9.07;1.88;;;8.80;99.90;;;;;;5051625;28;20106;-55
2023/01/08 02:46:11;;;;;;;12.25;1.90;;;8.80;99.90;;;;;;5047193;28;20083;-52
2023/01/08 02:48:39;;;;;;;11.38;2.50;;;8.80;99.90;;;;;;5050241;28;20057;-55
2023/01/08 02:51:08;;;;;;;12.73;2.45;;;8.80;99.90;;;;;;5048342;28;20407;-55
2023/01/08 02:53:36;;;;;;;14.38;2.50;;;8.70;99.90;;;;;;5043838;28;20100;-54
2023/01/08 02:56:05;;;;;;;9.02;2.15;;;8.70;99.90;;;;;;5049328;28;20048;-53
2023/01/08 02:58:33;;;;;;;15.32;2.60;;;8.70;99.90;;;;;;5052731;28;20501;-55
2023/01/08 03:01:00;;;;;;;17.38;2.20;;;8.70;99.90;;;;;;5052762;28;20155;-52
2023/01/08 03:03:28;;;;;;;10.40;2.00;;;8.70;99.90;;;;;;5045375;28;20493;-53
2023/01/08 03:05:58;;;;;;;11.77;2.13;;;8.70;99.90;;;;;;5051968;28;20091;-54
2023/01/08 03:08:25;;;;;;;15.65;2.00;;;8.60;99.90;;;;;;5048768;28;20136;-53
2023/01/08 03:10:53;;;;;;;11.63;2.30;;;8.60;99.90;;;;;;5051018;28;20084;-54
2023/01/08 03:13:23;;;;;;;12.20;2.33;;;8.60;99.90;;;;;;5050243;28;20056;-54
2023/01/08 03:15:52;;;;;;;11.63;2.10;;;8.60;99.90;;;;;;5051703;28;20102;-51
2023/01/08 03:18:21;;;;;;;15.98;2.60;;;8.60;99.90;;;;;;5052852;28;20053;-52
2023/01/08 03:20:48;;;;;;;11.07;1.98;;;8.60;99.90;;;;;;5033591;28;20381;-55
2023/01/08 03:23:14;;;;;;;9.98;2.10;;;8.50;99.90;;;;;;5044129;28;20555;-55
2023/01/08 03:25:42;;;;;;;14.05;2.20;;;8.50;99.90;;;;;;5051137;28;20095;-55
2023/01/08 03:28:11;;;;;;;14.50;3.15;;;8.50;99.90;;;;;;5050549;28;20085;-55
2023/01/08 03:30:39;;;;;;;9.45;2.63;;;8.50;99.90;;;;;;5051489;28;20098;-54
2023/01/08 03:33:07;;;;;;;12.18;2.78;;;8.50;99.90;;;;;;5052448;28;20059;-47
2023/01/08 03:35:34;;;;;;;11.65;2.83;;;8.50;99.90;;;;;;5051885;28;20087;-54
2023/01/08 03:38:03;;;;;;;8.95;3.10;;;8.50;99.90;;;;;;5048481;28;20446;-55
2023/01/08 03:40:32;;;;;;;9.07;2.75;;;8.50;99.90;;;;;;5052455;28;20056;-56
2023/01/08 03:42:58;;;;;;;12.10;3.05;;;8.50;99.90;;;;;;5052584;28;20130;-55
2023/01/08 03:45:26;;;;;;;10.63;3.60;;;8.50;99.90;;;;;;5052717;28;20118;-53
2023/01/08 03:47:52;;;;;;;8.50;3.40;;;8.60;99.90;;;;;;5049735;28;20139;-53
2023/01/08 03:50:22;;;;;;;5.75;3.00;;;8.60;99.90;;;;;;5047880;28;20053;-53
2023/01/08 03:52:49;;;;;;;10.82;3.60;;;8.60;99.90;;;;;;5047779;28;20084;-54
2023/01/08 03:55:16;;;;;;;5.93;3.40;;;8.60;99.90;;;;;;5035447;28;20092;-53
2023/01/08 03:57:43;;;;;;;8.65;3.83;;;8.70;99.90;;;;;;5050462;28;20045;-53
2023/01/08 04:00:11;;;;;;;9.50;4.03;;;8.70;99.90;;;;;;5046484;28;20048;-54
2023/01/08 04:02:38;;;;;;;12.55;4.35;;;8.70;99.90;;;;;;5049865;28;20095;-53
2023/01/08 04:05:05;;;;;;;11.55;3.60;;;8.70;99.90;;;;;;5049600;28;20049;-53
2023/01/08 04:07:33;;;;;;;8.50;3.72;;;8.70;99.90;;;;;;5049337;28;20041;-45
2023/01/08 04:10:00;;;;;;;10.15;3.85;;;8.70;99.90;;;;;;5049660;28;20053;-53
2023/01/08 04:12:27;;;;;;;7.05;3.63;;;8.80;99.90;;;;;;5051726;28;20107;-54
2023/01/08 04:14:54;;;;;;;7.32;3.38;;;8.80;99.90;;;;;;5050516;28;20049;-52
2023/01/08 04:17:21;;;;;;;7.45;3.42;;;8.80;99.90;;;;;;5050074;28;20080;-55
2023/01/08 04:19:47;;;;;;;7.32;3.17;;;8.80;99.90;;;;;;5052147;28;20092;-47
2023/01/08 04:22:14;;;;;;;6.47;3.00;;;8.90;99.90;;;;;;5052954;28;20103;-53
2023/01/08 04:24:42;;;;;;;7.13;2.95;;;8.90;99.90;;;;;;5055751;28;20049;-54
2023/01/08 04:27:09;;;;;;;4.85;2.47;;;8.90;99.90;;;;;;5054674;28;20053;-49
2023/01/08 04:29:36;;;;;;;10.30;3.58;;;8.90;99.90;;;;;;5054495;28;20048;-53
2023/01/08 04:32:03;;;;;;;5.55;2.70;;;8.90;99.90;;;;;;5054448;28;20089;-55
2023/01/08 04:34:29;;;;;;;6.30;2.40;;;9.00;99.90;;;;;;5054612;28;20093;-53
2023/01/08 04:36:56;;;;;;;6.05;2.35;;;9.00;99.90;;;;;;5053020;28;20087;-54
2023/01/08 04:39:23;;;;;;;6.80;2.50;;;9.00;99.90;;;;;;5055104;28;20088;-51
2023/01/08 04:41:51;;;;;;;6.80;2.25;;;9.00;99.90;;;;;;5055018;28;20088;-52
2023/01/08 04:44:18;;;;;;;5.18;2.50;;;9.00;99.90;;;;;;5053679;28;20088;-53
2023/01/08 04:46:45;;;;;;;9.75;2.30;;;8.90;99.90;;;;;;5053858;28;20056;-53
2023/01/08 04:49:11;;;;;;;7.40;2.50;;;8.90;99.90;;;;;;5055600;28;20203;-54
2023/01/08 04:51:38;;;;;;;4.35;1.90;;;8.90;99.90;;;;;;5053164;28;20451;-52
2023/01/08 04:54:05;;;;;;;7.22;2.10;;;8.90;99.90;;;;;;5055835;28;20073;-53
2023/01/08 04:56:32;;;;;;;6.88;1.95;;;8.90;99.90;;;;;;5052077;28;20061;-49
2023/01/08 04:59:00;;;;;;;4.70;2.05;;;8.90;99.90;;;;;;5034611;28;20065;-48
2023/01/08 05:01:27;;;;;;;8.35;2.53;;;8.90;99.90;;;;;;5045526;28;20106;-49
2023/01/08 05:03:54;;;;;;;7.30;2.05;;;8.90;99.90;;;;;;5054579;28;20056;-54
2023/01/08 05:06:21;;;;;;;5.60;1.88;;;8.80;99.90;;;;;;5055055;28;20053;-54
2023/01/08 05:08:48;;;;;;;4.88;2.00;;;8.90;99.90;;;;;;5053945;28;20369;-53
2023/01/08 05:11:14;;;;;;;4.70;2.03;;;8.90;99.90;;;;;;5052325;28;20084;-54
2023/01/08 05:13:41;;;;;;;7.18;2.00;;;8.80;99.90;;;;;;5052357;28;20501;-53
2023/01/08 05:16:09;;;;;;;3.85;1.58;;;8.80;99.90;;;;;;5053386;28;20053;-55
2023/01/08 05:18:36;;;;;;;3.95;1.67;;;8.80;99.90;;;;;;5052653;28;20056;-53
2023/01/08 05:21:04;;;;;;;5.88;2.47;;;8.80;99.90;;;;;;5033727;28;20140;-53
2023/01/08 05:23:30;;;;;;;4.07;1.95;;;8.80;99.90;;;;;;5044951;28;20045;-53
2023/01/08 05:25:58;;;;;;;8.38;2.53;;;8.80;99.90;;;;;;5054493;28;20053;-44
2023/01/08 05:28:25;;;;;;;4.63;2.10;;;8.80;99.90;;;;;;5053486;28;20049;-51
2023/01/08 05:30:51;;;;;;;12.90;5.25;;;8.80;99.90;;;;;;5057580;28;20238;-54
2023/01/08 05:33:19;;;;;;;8.95;4.82;;;8.80;99.90;;;;;;5073787;28;20095;-52
2023/01/08 05:35:49;;;;;;;5.63;2.85;;;8.70;99.90;;;;;;5073549;28;20499;-54
2023/01/08 05:38:16;;;;;;;9.52;3.70;;;8.70;99.90;;;;;;5055805;28;20056;-55
2023/01/08 05:40:43;;;;;;;5.95;3.08;;;8.70;99.90;;;;;;5074665;28;20397;-54
2023/01/08 05:43:09;;;;;;;6.32;2.63;;;8.60;99.90;;;;;;5074705;28;20052;-54
2023/01/08 05:45:36;;;;;;;8.40;3.00;;;8.70;99.90;;;;;;5073835;28;20084;-53
2023/01/08 05:48:05;;;;;;;6.45;2.60;;;8.70;99.90;;;;;;5073887;28;20135;-52
2023/01/08 05:50:33;;;;;;;7.85;2.88;;;8.70;99.90;;;;;;5074350;28;20052;-54
2023/01/08 05:53:00;;;;;;;7.88;2.65;;;8.60;99.90;;;;;;5073764;28;20063;-54
2023/01/08 05:55:27;;;;;;;6.93;3.33;;;8.60;99.90;;;;;;5056844;28;20054;-53
2023/01/08 05:57:53;;;;;;;9.38;3.25;;;8.60;99.90;;;;;;5055768;28;20125;-55
2023/01/08 06:00:23;;;;;;;7.80;3.25;;;8.70;99.90;;;;;;5067212;28;20048;-54
2023/01/08 06:02:49;;;;;;;7.15;3.63;;;8.60;99.90;;;;;;5069070;28;20102;-52
2023/01/08 06:05:16;;;;;;;9.65;3.38;;;8.60;99.90;;;;;;5055906;28;20605;-54
2023/01/08 06:07:45;;;;;;;6.25;3.08;;;8.60;99.90;;;;;;5072819;28;20083;-54
2023/01/08 06:10:11;;;;;;;10.85;3.15;;;8.60;99.90;;;;;;5060420;28;20044;-54
2023/01/08 06:12:38;;;;;;;8.02;3.63;;;8.60;99.90;;;;;;5072772;28;20041;-44
2023/01/08 06:15:06;;;;;;;9.23;3.50;;;8.60;99.90;;;;;;5069918;28;20084;-53
2023/01/08 06:17:34;;;;;;;8.77;3.22;;;8.60;99.90;;;;;;5053510;28;20052;-53
2023/01/08 06:20:01;;;;;;;9.43;2.85;;;8.60;99.90;;;;;;5069775;28;20523;-53
2023/01/08 06:22:27;;;;;;;7.50;2.97;;;8.50;99.90;;;;;;5069442;28;20377;-52
2023/01/08 06:24:56;;;;;;;11.25;3.60;;;8.50;99.90;;;;;;5056320;28;20064;-55
2023/01/08 06:27:22;;;;;;;7.65;3.08;;;8.50;99.90;;;;;;5067488;28;20409;-55
2023/01/08 06:29:49;;;;;;;9.90;3.05;;;8.50;99.90;;;;;;5055220;28;20072;-55
2023/01/08 06:32:16;;;;;;;7.32;2.50;;;8.50;99.90;;;;;;5064788;28;20048;-55
2023/01/08 06:34:43;;;;;;;10.20;2.70;;;8.50;99.90;;;;;;5054793;28;20056;-51
2023/01/08 06:37:10;;;;;;;9.18;2.97;;;8.50;99.90;;;;;;5068056;28;20044;-53
2023/01/08 06:39:37;;;;;;;6.93;2.28;;;8.50;99.90;;;;;;5054155;28;20493;-54
2023/01/08 06:42:05;;;;;;;10.77;2.22;;;8.40;99.90;;;;;;5067968;28;20083;-53
2023/01/08 06:44:32;;;;;;;11.07;2.40;;;8.40;99.90;;;;;;5055067;28;20044;-54
2023/01/08 06:46:58;;;;;;;9.68;2.40;;;8.40;99.90;;;;;;5054841;28;20139;-54
2023/01/08 06:49:25;;;;;;;7.53;2.38;;;8.40;99.90;;;;;;5053107;28;20068;-53
2023/01/08 06:51:52;;;;;;;8.70;2.05;;;8.40;99.90;;;;;;5055005;28;20518;-54
2023/01/08 06:54:19;;;;;;;11.68;2.25;;;8.40;99.90;;;;;;5072211;28;20048;-54
2023/01/08 06:56:48;;;;;;;10.43;2.13;;;8.40;99.90;;;;;;5072040;28;20040;-51
2023/01/08 06:59:16;;;;;;;10.65;2.08;;;8.40;99.90;;;;;;5051010;28;20094;-52
2023/01/08 07:01:43;;;;;;;8.45;1.85;;;8.30;99.90;;;;;;5063160;28;20041;-53
2023/01/08 07:04:10;;;;;;;10.40;2.00;;;8.30;99.90;;;;;;5069873;28;20084;-54
2023/01/08 07:06:37;;;;;;;5.28;1.73;;;8.30;99.90;;;;;;5069093;28;20106;-54
2023/01/08 07:09:03;;;;;;;9.43;2.38;;;8.30;99.90;;;;;;5072282;28;20122;-53
2023/01/08 07:11:30;;;;;;;12.48;2.25;;;8.30;99.90;;;;;;5073193;28;20314;-53
2023/01/08 07:13:57;;;;;;;11.18;2.30;;;8.20;99.90;;;;;;5072031;28;20139;-54
2023/01/08 07:16:25;;;;;;;6.60;1.80;;;8.20;99.90;;;;;;5053396;28;20122;-54
2023/01/08 07:18:52;;;;;;;6.15;1.70;;;8.20;99.90;;;;;;5043494;28;20156;-55
2023/01/08 07:21:21;;;;;;;4.07;1.70;;;8.20;99.90;;;;;;5064707;28;20135;-55
2023/01/08 07:23:48;;;;;;;10.75;1.85;;;8.10;99.90;;;;;;5054519;28;20063;-52
2023/01/08 07:26:15;;;;;;;9.60;2.20;;;8.10;99.90;;;;;;5071828;28;20094;-52
2023/01/08 07:28:42;;;;;;;6.32;1.85;;;8.10;99.90;;;;;;5048472;28;20049;-54
2023/01/08 07:31:09;;;;;;;9.65;2.28;;;8.10;99.90;;;;;;5070867;28;20462;-54
2023/01/08 07:33:37;;;;;;;8.05;1.98;;;8.10;99.90;;;;;;5070218;28;20127;-55
2023/01/08 07:36:05;;;;;;;10.60;2.30;;;8.10;99.90;;;;;;5067595;28;20131;-55
2023/01/08 07:38:31;;;;;;;13.32;2.30;;;8.20;99.90;;;;;;5071163;28;20079;-53
2023/01/08 07:40:58;;;;;;;7.35;2.08;;;8.20;99.90;;;;;;5068075;28;20449;-52
2023/01/08 07:43:28;;;;;;;8.88;2.50;;;8.20;99.90;;;;;;5071670;28;20385;-49
2023/01/08 07:45:55;;;;;;;11.63;3.85;;;8.20;99.90;;;;;;5068837;28;20124;-53
2023/01/08 07:48:22;;;;;;;9.70;3.28;;;8.10;99.90;;;;;;5054840;28;20135;-55
2023/01/08 07:50:50;;;;;;;13.00;3.25;;;8.10;99.90;;;;;;5070442;28;20482;-54
2023/01/08 07:53:17;;;;;;;8.95;2.63;;;8.10;99.90;;;;;;5042051;28;20500;-55
2023/01/08 07:55:43;;;;;;;10.13;2.85;;;8.10;99.90;;;;;;5070273;28;20057;-54
2023/01/08 07:58:10;;;;;;;9.63;2.25;;;8.00;99.90;;;;;;5051171;28;20139;-54
2023/01/08 08:00:37;;;;;;;7.78;2.42;;;8.00;99.90;;;;;;5049424;28;20520;-55
2023/01/08 08:03:05;;;;;;;8.90;2.83;;;8.00;99.90;;;;;;5046353;28;20462;-50
2023/01/08 08:05:32;;;;;;;8.52;2.40;;;8.00;99.90;;;;;;5040397;28;20488;-50
2023/01/08 08:08:00;;;;;;;13.93;2.80;;;7.90;99.90;;;;;;5068214;28;20056;-50
2023/01/08 08:10:28;;;;;;;12.25;2.65;;;7.90;99.90;;;;;;5072586;28;20203;-53
2023/01/08 08:12:54;;;;;;;12.20;3.05;;;8.00;99.90;;;;;;5032326;28;20139;-55
2023/01/08 08:15:21;;;;;;;11.75;2.92;;;7.90;99.90;;;;;;5055923;28;20049;-56
2023/01/08 08:17:48;;;;;;;11.80;3.00;;;7.90;99.90;;;;;;5054121;28;20072;-52
2023/01/08 08:20:15;;;;;;;12.48;2.92;;;7.80;99.90;;;;;;5039168;28;20084;-55
2023/01/08 08:22:42;;;;;;;8.10;2.33;;;7.80;99.90;;;;;;5052897;28;20506;-53
2023/01/08 08:25:10;;;;;;;8.32;2.30;;;7.70;99.90;;;;;;5052108;28;20468;-54
2023/01/08 08:27:37;;;;;;;10.60;2.85;;;7.80;99.90;;;;;;5072470;28;20538;-50
2023/01/08 08:30:04;;;;;;;12.38;2.47;;;7.70;99.90;;;;;;5045307;28;20465;-54
2023/01/08 08:32:31;;;;;;;11.82;2.80;;;7.80;99.90;;;;;;5044684;28;20442;-55
2023/01/08 08:34:58;;;;;;;9.18;2.70;;;7.70;99.90;;;;;;5049314;28;20056;-52
2023/01/08 08:37:25;;;;;;;8.80;2.40;;;7.70;99.90;;;;;;5048596;28;20080;-55
2023/01/08 08:39:52;;;;;;;8.77;2.35;;;7.80;99.90;;;;;;5051751;28;20109;-49
2023/01/08 08:42:20;;;;;;;9.13;2.55;;;7.70;99.90;;;;;;5069311;28;20079;-48
2023/01/08 08:44:47;;;;;;;5.72;2.00;;;7.70;99.90;;;;;;5056415;28;20040;-54
2023/01/08 08:47:14;;;;;;;7.95;2.25;;;7.70;99.90;;;;;;5051584;28;20464;-53
2023/01/08 08:49:41;;;;;;;5.75;2.15;;;7.70;99.90;;;;;;5053357;28;20463;-54
2023/01/08 08:52:08;;;;;;;9.25;2.50;;;7.70;99.90;;;;;;5034182;28;20088;-50
2023/01/08 08:54:36;;;;;;;9.93;3.28;;;7.80;99.90;;;;;;5064879;28;20083;-54
2023/01/08 08:57:03;;;;;;;12.05;2.80;;;7.70;99.90;;;;;;5047647;28;20053;-51
2023/01/08 08:59:31;;;;;;;14.45;3.55;;;7.70;99.90;;;;;;5068952;28;20080;-53
2023/01/08 09:01:58;;;;;;;10.75;3.42;;;7.80;99.90;;;;;;5051657;28;20144;-54
2023/01/08 09:04:25;;;;;;;5.47;2.63;;;7.80;99.90;;;;;;5068098;28;20504;-53
2023/01/08 09:06:52;;;;;;;9.10;2.92;;;7.70;99.90;;;;;;5068812;28;20123;-55
2023/01/08 09:09:18;;;;;;;10.57;3.90;;;7.70;99.90;;;;;;5073431;28;20048;-55
2023/01/08 09:11:45;;;;;;;12.73;3.25;;;7.80;99.90;;;;;;5069973;28;20496;-47
2023/01/08 09:14:12;;;;;;;7.50;2.47;;;7.80;99.90;;;;;;5053162;28;20128;-55
2023/01/08 09:16:40;;;;;;;9.93;2.60;;;7.80;99.90;;;;;;5048605;28;20102;-52
2023/01/08 09:19:08;;;;;;;9.90;2.88;;;7.90;99.90;;;;;;5052738;28;20099;-56
2023/01/08 09:21:35;;;;;;;6.72;2.15;;;7.80;99.90;;;;;;5068916;28;20127;-54
2023/01/08 09:24:02;;;;;;;10.85;2.88;;;7.90;99.90;;;;;;5071120;28;20056;-53
2023/01/08 09:26:29;;;;;;;10.82;2.00;;;7.90;99.90;;;;;;5072484;28;20131;-55
2023/01/08 09:28:56;;;;;;;11.00;2.50;;;7.90;99.90;;;;;;5049645;28;20128;-53
2023/01/08 09:31:23;;;;;;;7.10;1.90;;;8.00;99.90;;;;;;5070384;28;20056;-47
2023/01/08 09:33:51;;;;;;;7.20;2.00;;;8.00;99.90;;;;;;5068550;28;20055;-54
2023/01/08 09:36:18;;;;;;;5.90;1.90;;;8.00;99.90;;;;;;5070421;28;20492;-52
2023/01/08 09:38:45;;;;;;;9.75;2.45;;;8.00;99.90;;;;;;5065035;28;20091;-55
2023/01/08 09:41:14;;;;;;;13.77;2.63;;;8.10;99.90;;;;;;5056415;28;20041;-51
2023/01/08 09:43:42;;;;;;;12.50;3.55;;;8.10;99.90;;;;;;5044216;28;20088;-52
2023/01/08 09:46:09;;;;;;;11.10;2.08;;;8.20;99.90;;;;;;5066651;28;20040;-43
2023/01/08 09:48:38;;;;;;;15.65;3.17;;;8.20;99.90;;;;;;5043021;28;20098;-53
2023/01/08 09:51:07;;;;;;;7.32;1.70;;;8.20;99.90;;;;;;5048986;28;20084;-53
2023/01/08 09:53:33;;;;;;;12.35;2.47;;;8.30;99.90;;;;;;5065575;28;20080;-54
2023/01/08 09:56:01;;;;;;;15.15;2.72;;;8.30;99.90;;;;;;5078690;28;20083;-51
2023/01/08 09:58:35;;;;;;;9.63;2.03;;;8.40;99.90;;;;;;5058161;28;20084;-54
2023/01/08 10:01:02;;;;;;;13.23;2.25;;;8.40;99.90;;;;;;5068369;28;20144;-54
2023/01/08 10:03:30;;;;;;;9.23;2.33;;;8.40;99.90;;;;;;5065070;28;20569;-53
2023/01/08 10:05:56;;;;;;;11.80;2.33;;;8.50;99.90;;;;;;5051870;28;20072;-54
2023/01/08 10:08:25;;;;;;;12.48;2.33;;;8.50;99.90;;;;;;5053046;28;20072;-53
2023/01/08 10:10:51;;;;;;;13.85;2.10;;;8.50;99.90;;;;;;5052826;28;20091;-53
2023/01/08 10:13:18;;;;;;;12.48;2.50;;;8.60;99.90;;;;;;5047790;28;20074;-54
2023/01/08 10:15:45;;;;;;;14.02;2.60;;;8.60;99.90;;;;;;5075047;28;20060;-51
2023/01/08 10:18:13;;;;;;;12.73;2.15;;;8.70;99.90;;;;;;5047560;28;20041;-54
2023/01/08 10:20:40;;;;;;;14.75;2.55;;;8.70;99.90;;;;;;5049043;28;20088;-54
2023/01/08 10:23:11;;;;;;;15.85;2.20;;;8.70;99.90;;;;;;5049809;28;20073;-56
2023/01/08 10:25:49;;;;;;;10.48;2.25;;;8.70;99.90;;;;;;5064635;28;20048;-54
2023/01/08 10:28:19;;;;;;;8.95;2.38;;;8.80;99.90;;;;;;5073142;28;20508;-55
2023/01/08 10:30:46;;;;;;;15.63;2.22;;;8.80;99.90;;;;;;5055088;28;20084;-51
2023/01/08 10:33:15;;;;;;;14.43;2.13;;;8.70;99.90;;;;;;5055167;28;20519;-52
2023/01/08 10:35:42;;;;;;;10.70;2.22;;;8.80;99.90;;;;;;5071335;28;20113;-55
2023/01/08 10:38:23;;;;;;;12.88;2.10;;;8.80;99.90;;;;;;5035601;28;20090;-55
2023/01/08 10:40:52;;;;;;;14.80;2.40;;;8.80;99.90;;;;;;5051922;28;20053;-52
2023/01/08 10:43:20;;;;;;;11.50;2.00;;;8.90;99.90;;;;;;5073324;28;20433;-51
2023/01/08 10:45:55;;;;;;;16.85;2.30;;;8.80;99.90;;;;;;5050187;28;20052;-51
2023/01/08 10:48:22;;;;;;;19.20;2.47;;;8.90;99.90;;;;;;5047919;28;20052;-50
2023/01/08 10:50:49;;;;;;;17.52;2.95;;;8.90;99.90;;;;;;5054814;28;20040;-55
2023/01/08 10:53:23;;;;;;;16.58;2.70;;;8.90;99.90;;;;;;5052809;28;20056;-54
2023/01/08 10:55:59;;;;;;;14.43;2.20;;;9.00;99.90;;;;;;5072944;28;20048;-53
2023/01/08 10:58:27;;;;;;;14.80;2.45;;;9.00;99.90;;;;;;5072123;28;20102;-55
2023/01/08 11:00:54;;;;;;;20.13;2.63;;;9.00;99.90;;;;;;5068410;28;20097;-52
2023/01/08 11:03:28;;;;;;;14.60;2.90;;;9.00;99.90;;;;;;5067097;28;20091;-53
2023/01/08 11:05:55;;;;;;;15.93;2.60;;;9.00;99.90;;;;;;5072485;28;20125;-54
2023/01/08 11:08:22;;;;;;;14.35;2.60;;;9.10;99.90;;;;;;5072765;28;20098;-54
2023/01/08 11:10:53;;;;;;;14.55;2.83;;;9.10;99.90;;;;;;5062054;28;20488;-55
2023/01/08 11:13:21;;;;;;;14.98;2.22;;;9.30;99.90;;;;;;5067109;28;20056;-54
2023/01/08 11:15:57;;;;;;;14.07;2.60;;;9.20;99.90;;;;;;5054907;28;20055;-54
2023/01/08 11:18:25;;;;;;;11.10;2.58;;;9.30;99.90;;;;;;5068244;28;20090;-54
2023/01/08 11:20:52;;;;;;;14.70;2.92;;;9.30;99.90;;;;;;5071899;28;20106;-52
2023/01/08 11:23:21;;;;;;;15.48;2.88;;;9.30;99.90;;;;;;5069285;28;20053;-54
2023/01/08 11:25:52;;;;;;;12.63;2.22;;;9.30;99.90;;;;;;5069090;28;20088;-54
2023/01/08 11:28:23;;;;;;;13.00;1.88;;;9.40;99.90;;;;;;5049532;28;20048;-49
2023/01/08 11:30:52;;;;;;;;;;;9.40;99.90;;;;;;5069272;28;20135;-53
2023/01/08 11:33:21;;;;;;;14.07;2.22;;;9.40;99.90;;;;;;5069141;28;20322;-54
2023/01/08 11:35:49;;;;;;;17.33;2.97;;;9.40;99.90;;;;;;5068321;28;20139;-54
2023/01/08 11:38:16;;;;;;;16.65;2.90;;;9.30;99.90;;;;;;5069658;28;20144;-53
2023/01/08 11:40:46;;;;;;;13.48;2.85;;;9.30;99.90;;;;;;5051427;28;20400;-47
2023/01/08 11:43:29;;;;;;;11.60;2.60;;;9.30;99.90;;;;;;5056307;28;20088;-45
2023/01/08 11:46:18;;;;;;;20.70;3.08;;;9.40;99.90;;;;;;5055068;28;20057;-50
2023/01/08 11:48:54;;;;;;;12.63;2.28;;;9.40;99.90;;;;;;5034677;28;20453;-53
2023/01/08 11:51:36;;;;;;;14.75;3.22;;;9.40;99.90;;;;;;5049901;28;20132;-52
2023/01/08 11:54:06;;;;;;;15.20;2.75;;;9.40;99.90;;;;;;5071723;28;20488;-55
2023/01/08 11:56:40;;;;;;;13.93;2.50;;;9.40;99.90;;;;;;5071867;28;20076;-54
2023/01/08 11:59:14;;;;;;;13.52;2.35;;;9.30;99.90;;;;;;5071519;28;20128;-54
2023/01/08 12:01:53;;;;;;;22.55;3.60;;;9.30;99.90;;;;;;5052746;28;20087;-51
2023/01/08 12:04:46;;;;;;;16.63;3.10;;;9.30;99.90;;;;;;5051629;28;20103;-54
2023/01/08 12:07:15;;;;;;;16.90;2.67;;;9.40;99.90;;;;;;5066734;28;20127;-48
2023/01/08 12:09:44;;;;;;;12.48;2.50;;;9.30;99.90;;;;;;5049444;28;20068;-52
2023/01/08 12:12:17;;;;;;;19.83;4.07;;;9.30;99.90;;;;;;5069072;28;20049;-51
2023/01/08 12:14:52;;;;;;;17.30;3.13;;;9.30;99.90;;;;;;5053853;28;20056;-53
2023/01/08 12:17:53;;;;;;;10.85;2.88;;;9.30;99.90;;;;;;5034639;28;20049;-51
2023/01/08 12:20:25;;;;;;;14.48;3.13;;;9.20;99.90;;;;;;5010523;28;20119;-51
2023/01/08 12:22:56;;;;;;;8.25;2.30;;;9.20;99.90;;;;;;5072008;28;20102;-54
2023/01/08 12:25:31;;;;;;;14.68;3.00;;;9.20;99.90;;;;;;5071993;28;20434;-52
2023/01/08 12:28:19;;;;;;;12.85;2.65;;;9.20;99.90;;;;;;5053369;28;20056;-53
2023/01/08 12:31:10;;;;;;;13.05;2.50;;;9.30;99.90;;;;;;5053758;28;20061;-53
2023/01/08 12:33:39;;;;;;;11.93;2.88;;;9.20;99.90;;;;;;5054320;28;20088;-51
2023/01/08 12:36:08;;;;;;;12.98;2.75;;;9.30;99.90;;;;;;5070851;28;20110;-53
2023/01/08 12:38:36;;;;;;;12.32;2.40;;;9.30;99.90;;;;;;5059601;28;20129;-53
2023/01/08 12:41:05;;;;;;;22.10;3.15;;;9.40;99.90;;;;;;5054875;28;20087;-50
2023/01/08 12:43:35;;;;;;;21.13;4.72;;;9.40;99.90;;;;;;5068904;28;20052;-52
2023/01/08 12:46:03;;;;;;;13.48;2.20;;;9.40;99.90;;;;;;5075851;28;20122;-51
2023/01/08 12:48:31;;;;;;;18.10;3.10;;;9.50;99.90;;;;;;5057455;28;20435;-49
2023/01/08 12:51:00;;;;;;;15.55;2.90;;;9.50;99.90;;;;;;5075395;28;20056;-52
2023/01/08 12:53:31;;;;;;;14.82;2.72;;;9.50;99.90;;;;;;5075007;28;20462;-53
2023/01/08 12:56:02;;;;;;;13.85;3.03;;;9.60;99.90;;;;;;5057873;28;20067;-48
2023/01/08 12:58:34;;;;;;;22.97;5.67;;;9.60;99.90;;;;;;5075627;28;20145;-48